Josephine, Alabama
Current Conditions -  °F | °C
As of 5:15 AM on Friday 28 Nov 2014 (Local Time) from KJKA Reporting Station
Clear Clear  
Wind Chill: -1°   Ceiling: Unl
Heat Index:   Visibility: 10mi
Dew Point: -1°   Wind: 5mph
Humidity: 85%   Direction: 40°NE
Pressure: 30.42"   Gusts: NA
Location:  30.4162°N, 87.5594°W
Report Text: KJKA 281115Z AUTO 04004KT 10SM CLR 01/M01 A3042 RMK AO2 T00131010
Loading
Personal Weather Stations






























Interactive Weather Map New forecast layout! Learn more

10-Day Weather Forecast

Advertisements
Track Severe Weather on mobile